Time;durP1;ratioP1;P1;durP2;ratioP2;P2;SDS_P1;SDS_P2;PMS_P1;PMS_P2;Temp;Humidity;BMP_temperature;BMP_pressure;BME280_temperature;BME280_humidity;BME280_pressure;Samples;Min_cycle;Max_cycle;Signal;HPM_P1;HPM_P2
2021/10/14 00:01:18;;;;;;;;;38.00;33.25;;;;;11.07;65.95;102566.72;5055788;28;45306;-74
2021/10/14 00:03:43;;;;;;;;;38.75;30.50;;;;;11.05;65.95;102563.13;5076705;28;58223;-75
2021/10/14 00:06:10;;;;;;;;;36.50;29.25;;;;;11.05;66.02;102571.06;5077085;28;45298;-76
2021/10/14 00:08:35;;;;;;;;;36.75;28.75;;;;;11.04;65.92;102575.44;5077349;28;45487;-75
2021/10/14 00:11:01;;;;;;;;;35.00;31.00;;;;;10.99;66.08;102561.16;5077250;28;45932;-75
2021/10/14 00:13:26;;;;;;;;;40.50;30.25;;;;;11.02;65.83;102567.47;5010945;28;63069;-75
2021/10/14 00:15:51;;;;;;;;;27.50;24.50;;;;;11.01;66.05;102568.28;4993700;28;61009;-75
2021/10/14 00:18:17;;;;;;;;;26.50;25.00;;;;;11.00;65.85;102571.78;4994072;28;51393;-75
2021/10/14 00:20:42;;;;;;;;;29.25;26.25;;;;;10.98;66.03;102567.28;4994073;28;45892;-75
2021/10/14 00:23:08;;;;;;;;;32.00;26.00;;;;;10.99;65.87;102571.72;5005612;28;46373;-75
2021/10/14 00:25:33;;;;;;;;;29.75;26.50;;;;;10.98;65.99;102572.56;4993684;28;56919;-75
2021/10/14 00:27:59;;;;;;;;;30.00;25.75;;;;;10.94;66.04;102566.25;4994093;28;45958;-75
2021/10/14 00:30:24;;;;;;;;;24.75;24.00;;;;;10.95;66.03;102564.50;4993626;28;54378;-75
2021/10/14 00:32:49;;;;;;;;;27.50;26.25;;;;;10.93;66.00;102569.75;4993209;28;62759;-75
2021/10/14 00:35:15;;;;;;;;;33.50;23.50;;;;;10.92;66.08;102561.75;5056802;28;60512;-75
2021/10/14 00:37:40;;;;;;;;;31.75;27.00;;;;;10.92;66.01;102569.66;5056726;28;54481;-75
2021/10/14 00:40:06;;;;;;;;;37.50;28.50;;;;;10.90;66.01;102571.38;5009552;28;50502;-74
2021/10/14 00:42:31;;;;;;;;;28.00;25.00;;;;;10.89;66.01;102562.53;5035708;28;46500;-75
2021/10/14 00:44:57;;;;;;;;;27.50;25.50;;;;;10.88;66.04;102568.69;5079890;28;57906;-75
2021/10/14 00:47:26;;;;;;;;;30.75;26.75;;;;;10.86;66.01;102573.00;5038928;28;45473;-75
2021/10/14 00:49:52;;;;;;;;;27.00;24.25;;;;;10.84;66.10;102564.13;5024597;28;45481;-74
2021/10/14 00:52:18;;;;;;;;;29.75;25.75;;;;;10.83;66.10;102570.25;5063896;28;47606;-75
2021/10/14 00:54:44;;;;;;;;;22.00;22.00;;;;;10.82;65.91;102568.47;5071433;28;59787;-74
2021/10/14 00:57:11;;;;;;;;;27.25;22.75;;;;;10.78;66.22;102566.53;5037532;28;45495;-75
2021/10/14 00:59:36;;;;;;;;;29.50;27.75;;;;;10.81;66.16;102563.09;4996727;28;45446;-74
2021/10/14 01:02:02;;;;;;;;;27.25;23.25;;;;;10.80;66.08;102562.19;5034583;28;46178;-74
2021/10/14 01:04:27;;;;;;;;;29.50;23.25;;;;;10.77;66.16;102562.09;5043665;28;45556;-75
2021/10/14 01:06:52;;;;;;;;;26.25;22.50;;;;;10.77;66.39;102555.91;5047049;28;45811;-76
2021/10/14 01:09:18;;;;;;;;;24.00;23.00;;;;;10.75;66.13;102561.13;5079616;28;55702;-75
2021/10/14 01:11:43;;;;;;;;;32.75;26.00;;;;;10.73;66.25;102561.06;5031790;28;59354;-75
2021/10/14 01:14:09;;;;;;;;;33.50;28.25;;;;;10.73;66.16;102563.72;5079753;28;56153;-75
2021/10/14 01:16:39;;;;;;;;;26.00;22.25;;;;;10.72;66.46;102555.75;5079896;28;47794;-75
2021/10/14 01:19:04;;;;;;;;;32.50;26.25;;;;;10.67;66.33;102549.38;5050797;28;45318;-75
2021/10/14 01:21:31;;;;;;;;;31.25;25.00;;;;;10.71;66.35;102556.59;5079772;28;46366;-74
2021/10/14 01:23:56;;;;;;;;;25.50;23.00;;;;;10.70;66.38;102552.13;5012140;28;45440;-75
2021/10/14 01:26:22;;;;;;;;;25.50;22.75;;;;;10.68;66.58;102549.41;4962164;28;50204;-75
2021/10/14 01:28:47;;;;;;;;;28.50;24.00;;;;;10.70;66.64;102554.75;4995640;28;52761;-75
2021/10/14 01:31:12;;;;;;;;;23.00;22.50;;;;;10.68;66.53;102549.41;4995118;28;64088;-75
2021/10/14 01:33:38;;;;;;;;;25.00;21.25;;;;;10.69;66.45;102545.03;4989461;28;56711;-75
2021/10/14 01:36:03;;;;;;;;;34.50;23.00;;;;;10.68;66.71;102548.53;5007833;27;53672;-74
2021/10/14 01:38:29;;;;;;;;;30.00;25.50;;;;;10.67;66.49;102542.34;4990973;28;45647;-75
2021/10/14 01:40:54;;;;;;;;;24.50;21.50;;;;;10.66;66.60;102542.31;4987203;28;62611;-75
2021/10/14 01:43:20;;;;;;;;;25.75;21.00;;;;;10.65;66.44;102535.19;5017607;28;56532;-75
2021/10/14 01:45:45;;;;;;;;;25.50;21.25;;;;;10.63;66.52;102534.25;4991320;28;45401;-75
2021/10/14 01:48:11;;;;;;;;;24.50;21.00;;;;;10.61;66.57;102536.84;4988643;28;52919;-75
2021/10/14 01:50:36;;;;;;;;;28.50;21.00;;;;;10.60;66.64;102539.41;4987452;28;61502;-74
2021/10/14 01:53:02;;;;;;;;;19.50;16.25;;;;;10.59;66.82;102535.84;4988010;28;45525;-75
2021/10/14 01:55:27;;;;;;;;;22.00;19.25;;;;;10.59;66.84;102541.13;4991788;28;55916;-75
2021/10/14 01:57:52;;;;;;;;;17.50;15.50;;;;;10.60;66.71;102531.47;4979798;28;50311;-75
2021/10/14 02:00:18;;;;;;;;;20.75;15.50;;;;;10.57;66.46;102521.69;4993127;28;46094;-75
2021/10/14 02:02:43;;;;;;;;;26.50;22.00;;;;;10.58;66.73;102528.78;4989707;28;56900;-76
2021/10/14 02:05:09;;;;;;;;;23.25;19.00;;;;;10.59;66.66;102529.69;4989381;28;53218;-75
2021/10/14 02:07:34;;;;;;;;;20.50;19.75;;;;;10.57;66.66;102524.34;4987689;28;45195;-76
2021/10/14 02:09:59;;;;;;;;;22.00;18.75;;;;;10.57;66.68;102527.00;4985976;28;46395;-75
2021/10/14 02:12:26;;;;;;;;;22.00;19.00;;;;;10.56;66.66;102522.56;4991018;28;45926;-75
2021/10/14 02:14:52;;;;;;;;;25.50;21.75;;;;;10.56;66.67;102517.28;4989165;28;57645;-75
2021/10/14 02:17:17;;;;;;;;;25.00;22.25;;;;;10.56;66.64;102512.00;4985305;28;45416;-75
2021/10/14 02:19:42;;;;;;;;;28.25;20.75;;;;;10.56;66.66;102512.00;4983261;28;62210;-74
2021/10/14 02:22:08;;;;;;;;;30.00;22.50;;;;;10.56;66.76;102511.09;4987317;28;54988;-76
2021/10/14 02:24:33;;;;;;;;;27.00;24.50;;;;;10.54;66.72;102510.13;4992184;28;46681;-75
2021/10/14 02:26:59;;;;;;;;;27.00;20.75;;;;;10.53;66.80;102509.22;4993123;28;51722;-74
2021/10/14 02:29:24;;;;;;;;;29.75;21.00;;;;;10.53;66.96;102510.97;4992765;28;45432;-74
2021/10/14 02:31:49;;;;;;;;;22.25;20.00;;;;;10.49;66.71;102513.50;4983625;28;45511;-75
2021/10/14 02:34:15;;;;;;;;;29.25;22.25;;;;;10.49;66.56;102508.22;4991671;28;45282;-75
2021/10/14 02:36:40;;;;;;;;;23.50;21.25;;;;;10.48;66.95;102519.59;4962022;28;45642;-74
2021/10/14 02:39:06;;;;;;;;;21.25;20.75;;;;;10.47;66.67;102516.91;4985934;28;45343;-75
2021/10/14 02:41:31;;;;;;;;;24.00;22.75;;;;;10.45;66.89;102516.84;4989064;28;45338;-75
2021/10/14 02:43:56;;;;;;;;;26.75;24.00;;;;;10.45;66.81;102516.84;4988573;28;45684;-75
2021/10/14 02:46:22;;;;;;;;;30.25;23.00;;;;;10.42;66.84;102516.72;4993009;28;45314;-75
2021/10/14 02:48:47;;;;;;;;;28.75;22.75;;;;;10.41;66.92;102520.22;4988930;28;46495;-76
2021/10/14 02:51:13;;;;;;;;;25.50;24.00;;;;;10.41;67.04;102514.94;4986148;28;59341;-75
2021/10/14 02:53:38;;;;;;;;;30.25;27.50;;;;;10.39;66.75;102516.63;4992481;28;46775;-74
2021/10/14 02:56:04;;;;;;;;;37.25;25.50;;;;;10.39;66.99;102505.16;4987245;28;49862;-74
2021/10/14 02:58:29;;;;;;;;;24.50;19.75;;;;;10.39;66.96;102510.44;4987440;28;46495;-75
2021/10/14 03:00:54;;;;;;;;;24.00;20.75;;;;;10.38;66.87;102514.81;4978977;28;45643;-75
2021/10/14 03:03:20;;;;;;;;;27.00;23.25;;;;;10.34;66.83;102501.44;5012438;28;45409;-75
2021/10/14 03:05:45;;;;;;;;;21.75;19.75;;;;;10.35;66.83;102508.53;4986997;28;51306;-74
2021/10/14 03:08:11;;;;;;;;;29.00;23.00;;;;;10.30;66.77;102510.97;4991974;28;45630;-74
2021/10/14 03:10:36;;;;;;;;;24.25;22.00;;;;;10.33;66.96;102518.09;4987351;28;45445;-75
2021/10/14 03:13:01;;;;;;;;;31.00;24.25;;;;;10.31;66.98;102506.59;4985182;28;45839;-75
2021/10/14 03:15:27;;;;;;;;;24.75;22.25;;;;;10.29;66.98;102503.91;4983382;28;50320;-75
2021/10/14 03:17:52;;;;;;;;;23.50;22.00;;;;;10.27;66.83;102507.31;4989266;28;46476;-75
2021/10/14 03:20:18;;;;;;;;;28.25;22.00;;;;;10.27;66.80;102508.22;4987098;28;61667;-75
2021/10/14 03:22:43;;;;;;;;;22.75;19.25;;;;;10.20;66.93;102501.75;4981255;28;50959;-74
2021/10/14 03:25:08;;;;;;;;;28.50;21.25;;;;;10.22;67.00;102507.09;4981697;28;51115;-74
2021/10/14 03:27:34;;;;;;;;;29.25;23.75;;;;;10.19;66.69;102501.72;4987667;28;45611;-75
2021/10/14 03:29:59;;;;;;;;;26.25;25.00;;;;;10.20;66.79;102509.69;4983662;28;45624;-75
2021/10/14 03:32:24;;;;;;;;;19.75;19.00;;;;;10.20;66.99;102516.69;4988592;28;52028;-75
2021/10/14 03:34:50;;;;;;;;;24.75;23.50;;;;;10.21;66.94;102510.56;4988715;28;54222;-75
2021/10/14 03:37:16;;;;;;;;;24.75;22.00;;;;;10.17;67.00;102506.94;5074836;28;61301;-74
2021/10/14 03:39:41;;;;;;;;;26.25;19.00;;;;;10.17;66.71;102521.84;5040675;28;45461;-74
2021/10/14 03:42:07;;;;;;;;;27.50;22.50;;;;;10.16;66.99;102518.31;5019279;28;53494;-75
2021/10/14 03:44:32;;;;;;;;;23.25;18.50;;;;;10.16;66.96;102518.31;5077121;28;54627;-74
2021/10/14 03:46:57;;;;;;;;;19.00;19.00;;;;;10.16;66.96;102523.59;5077312;28;58732;-75
2021/10/14 03:49:23;;;;;;;;;23.25;18.75;;;;;10.10;66.90;102518.06;5077371;28;49258;-74
2021/10/14 03:51:48;;;;;;;;;23.50;19.75;;;;;10.14;66.86;102524.38;5077838;28;45890;-75
2021/10/14 03:54:13;;;;;;;;;22.50;18.75;;;;;10.13;66.76;102527.88;5038571;28;51360;-75
2021/10/14 03:56:39;;;;;;;;;20.25;18.00;;;;;10.12;67.19;102532.25;5005355;28;59745;-74
2021/10/14 03:59:04;;;;;;;;;22.00;18.00;;;;;10.13;67.19;102525.22;4984674;28;60212;-74
2021/10/14 04:01:30;;;;;;;;;21.00;17.50;;;;;10.13;67.20;102530.50;5062432;28;45214;-75
2021/10/14 04:03:55;;;;;;;;;21.00;19.00;;;;;10.13;67.26;102530.50;5077409;28;48330;-74
2021/10/14 04:06:20;;;;;;;;;18.75;18.75;;;;;10.14;67.13;102534.94;4997439;28;46277;-74
2021/10/14 04:08:46;;;;;;;;;22.00;19.75;;;;;10.14;67.04;102534.94;4993655;28;56897;-75
2021/10/14 04:11:11;;;;;;;;;24.50;20.75;;;;;10.11;66.89;102527.78;4993735;28;53719;-75
2021/10/14 04:13:37;;;;;;;;;25.00;21.00;;;;;10.11;67.16;102529.53;4994430;28;45751;-74
2021/10/14 04:16:02;;;;;;;;;19.75;19.00;;;;;10.10;66.92;102533.00;4993069;28;56969;-74
2021/10/14 04:18:27;;;;;;;;;23.75;19.50;;;;;10.07;66.98;102533.81;4993983;28;45223;-75
2021/10/14 04:20:53;;;;;;;;;22.00;18.75;;;;;10.04;67.11;102527.50;4994536;28;45469;-75
2021/10/14 04:23:20;;;;;;;;;21.50;18.25;;;;;10.03;67.39;102529.22;4993291;28;45325;-74
2021/10/14 04:25:45;;;;;;;;;20.75;18.25;;;;;9.98;67.24;102525.50;4994036;28;46609;-75
2021/10/14 04:28:11;;;;;;;;;25.25;20.75;;;;;10.01;66.99;102535.28;5040924;28;45507;-75
2021/10/14 04:30:37;;;;;;;;;21.00;19.00;;;;;10.01;67.02;102532.63;5075483;28;58223;-75
2021/10/14 04:33:02;;;;;;;;;24.75;22.00;;;;;10.00;67.07;102530.84;4968072;28;45584;-73
2021/10/14 04:35:28;;;;;;;;;24.75;20.00;;;;;9.99;67.06;102535.22;4990605;28;61019;-77
2021/10/14 04:37:53;;;;;;;;;22.75;20.25;;;;;9.96;67.05;102528.09;4972449;28;45459;-77
2021/10/14 04:40:19;;;;;;;;;27.00;19.50;;;;;9.92;67.02;102528.78;4989775;28;45638;-77
2021/10/14 04:42:44;;;;;;;;;26.50;23.75;;;;;9.95;67.17;102536.81;5000646;28;45496;-77
2021/10/14 04:45:09;;;;;;;;;24.75;19.25;;;;;9.93;67.08;102535.88;4992219;28;45619;-78
2021/10/14 04:47:36;;;;;;;;;22.00;21.50;;;;;9.93;67.15;102535.88;4992646;28;55278;-79
2021/10/14 04:50:01;;;;;;;;;28.25;24.25;;;;;9.89;67.16;102533.94;4993863;28;45395;-77
2021/10/14 04:52:27;;;;;;;;;29.50;24.00;;;;;9.92;67.31;102533.19;4999753;28;51183;-77
2021/10/14 04:54:52;;;;;;;;;23.00;23.00;;;;;9.90;67.29;102537.47;5007798;28;60017;-76
2021/10/14 04:57:17;;;;;;;;;30.00;22.75;;;;;9.89;67.22;102528.66;5000130;28;45479;-75
2021/10/14 04:59:43;;;;;;;;;27.00;22.25;;;;;9.89;67.14;102538.31;4994620;28;45792;-75
2021/10/14 05:02:08;;;;;;;;;29.25;20.25;;;;;9.87;67.09;102538.25;5003354;28;45460;-76
2021/10/14 05:04:34;;;;;;;;;26.25;23.25;;;;;9.88;67.18;102539.16;4992205;28;60473;-76
2021/10/14 05:06:59;;;;;;;;;26.00;23.25;;;;;9.85;67.04;102536.38;4992491;28;58294;-76
2021/10/14 05:09:24;;;;;;;;;33.00;23.00;;;;;9.87;67.11;102543.53;4993259;28;45867;-76
2021/10/14 05:11:50;;;;;;;;;31.25;23.75;;;;;9.86;67.17;102541.75;4991731;28;55698;-76
2021/10/14 05:14:15;;;;;;;;;29.00;25.25;;;;;9.84;67.00;102539.84;4991100;28;58401;-76
2021/10/14 05:16:41;;;;;;;;;29.50;22.75;;;;;9.84;67.21;102534.59;4988205;28;45489;-76
2021/10/14 05:19:06;;;;;;;;;30.75;27.00;;;;;9.84;67.18;102534.59;4989182;28;45412;-75
2021/10/14 05:21:31;;;;;;;;;29.00;24.50;;;;;9.82;67.40;102531.00;4983624;28;45386;-74
2021/10/14 05:24:00;;;;;;;;;24.00;22.50;;;;;9.81;67.36;102537.13;4982429;28;57374;-75
2021/10/14 05:26:26;;;;;;;;;29.75;27.25;;;;;9.79;67.26;102530.84;4986677;28;45506;-76
2021/10/14 05:28:53;;;;;;;;;31.50;25.00;;;;;9.79;67.09;102537.03;5000563;28;45405;-76
2021/10/14 05:31:18;;;;;;;;;24.75;23.25;;;;;9.76;67.30;102539.56;4982357;28;45493;-77
2021/10/14 05:33:44;;;;;;;;;28.25;24.00;;;;;9.78;67.26;102542.25;4991062;28;46580;-75
2021/10/14 05:36:09;;;;;;;;;30.50;25.75;;;;;9.70;67.21;102536.66;4997274;28;58063;-76
2021/10/14 05:38:35;;;;;;;;;29.00;23.00;;;;;9.76;67.01;102549.22;4994562;28;51206;-76
2021/10/14 05:41:00;;;;;;;;;34.50;23.00;;;;;9.74;67.36;102542.94;5000060;28;45421;-75
2021/10/14 05:43:25;;;;;;;;;27.00;23.00;;;;;9.74;67.11;102543.84;4993287;28;50623;-76
2021/10/14 05:45:51;;;;;;;;;24.25;21.00;;;;;9.71;67.35;102538.47;4994716;28;52947;-75
2021/10/14 05:48:16;;;;;;;;;25.75;23.00;;;;;9.72;67.23;102545.53;4993578;28;45832;-75
2021/10/14 05:50:41;;;;;;;;;26.75;23.75;;;;;9.70;67.38;102541.94;5003589;28;49313;-76
2021/10/14 05:53:07;;;;;;;;;27.00;23.00;;;;;9.69;67.25;102537.47;4998376;28;57892;-74
2021/10/14 05:55:32;;;;;;;;;24.25;22.75;;;;;9.67;67.39;102541.81;4991936;28;59360;-74
2021/10/14 05:57:58;;;;;;;;;24.25;23.50;;;;;9.62;67.38;102532.78;4994225;28;45688;-75
2021/10/14 06:00:23;;;;;;;;;23.25;21.50;;;;;9.61;67.23;102536.28;5009090;28;52488;-76
2021/10/14 06:02:49;;;;;;;;;24.25;21.00;;;;;9.64;67.56;102546.94;5054624;28;46481;-75
2021/10/14 06:05:14;;;;;;;;;27.50;23.25;;;;;9.63;67.50;102529.31;4995193;28;53828;-75
2021/10/14 06:07:39;;;;;;;;;31.50;27.25;;;;;9.60;67.32;102535.38;5005481;28;51539;-76
2021/10/14 06:10:05;;;;;;;;;31.75;25.25;;;;;9.58;67.40;102529.13;5006630;28;45417;-76
2021/10/14 06:12:31;;;;;;;;;27.75;23.00;;;;;9.61;67.43;102536.28;4993783;28;46435;-77
2021/10/14 06:14:56;;;;;;;;;33.75;25.00;;;;;9.59;67.45;102537.97;4994001;28;52439;-76
2021/10/14 06:17:21;;;;;;;;;31.50;24.50;;;;;9.60;67.42;102534.47;4996152;28;55980;-76
2021/10/14 06:19:47;;;;;;;;;27.50;24.00;;;;;9.61;67.68;102533.63;4991670;28;51806;-76
2021/10/14 06:22:12;;;;;;;;;29.25;26.50;;;;;9.62;67.57;102543.34;5043265;28;55534;-75
2021/10/14 06:24:38;;;;;;;;;32.75;29.50;;;;;9.61;67.38;102534.53;4979082;28;45471;-75
2021/10/14 06:27:03;;;;;;;;;35.25;27.50;;;;;9.63;67.71;102543.41;4992464;28;46959;-74
2021/10/14 06:29:28;;;;;;;;;32.00;28.75;;;;;9.61;67.52;102536.28;5057449;28;45658;-74
2021/10/14 06:31:54;;;;;;;;;31.00;28.25;;;;;9.66;67.69;102545.28;4994912;28;62471;-75
2021/10/14 06:34:19;;;;;;;;;32.75;27.25;;;;;9.64;67.37;102525.84;5007544;28;51093;-75
2021/10/14 06:36:45;;;;;;;;;28.50;25.50;;;;;9.67;67.64;102536.53;4995127;28;45452;-75
2021/10/14 06:39:10;;;;;;;;;33.75;28.00;;;;;9.71;67.70;102533.19;4991656;28;45588;-76
2021/10/14 06:41:35;;;;;;;;;34.50;30.50;;;;;9.73;67.55;102533.25;4991440;28;58235;-76
2021/10/14 06:44:01;;;;;;;;;37.50;30.00;;;;;9.68;67.74;102530.41;4983747;28;45479;-75
2021/10/14 06:46:26;;;;;;;;;35.00;27.50;;;;;9.74;67.86;102535.03;4987616;28;45290;-76
2021/10/14 06:48:52;;;;;;;;;37.50;29.25;;;;;9.76;67.91;102525.47;4986887;28;53672;-74
2021/10/14 06:51:17;;;;;;;;;32.00;25.50;;;;;9.78;67.90;102532.59;4988753;28;56694;-77
2021/10/14 06:53:42;;;;;;;;;30.50;26.75;;;;;9.81;67.95;102532.75;4989342;28;46063;-77
2021/10/14 06:56:08;;;;;;;;;27.25;27.25;;;;;9.83;67.96;102533.69;4991340;28;55974;-77
2021/10/14 06:58:33;;;;;;;;;35.25;29.25;;;;;9.86;67.82;102536.47;4989310;28;54402;-77
2021/10/14 07:00:58;;;;;;;;;26.50;24.00;;;;;9.88;67.92;102534.78;4989148;28;57530;-77
2021/10/14 07:03:24;;;;;;;;;36.50;27.50;;;;;9.90;68.16;102530.44;4975219;28;59621;-77
2021/10/14 07:05:49;;;;;;;;;36.75;29.00;;;;;9.92;68.13;102527.91;4988005;28;49875;-77
2021/10/14 07:08:17;;;;;;;;;29.75;28.00;;;;;9.95;68.22;102534.19;4984700;28;45497;-76
2021/10/14 07:10:45;;;;;;;;;31.00;30.00;;;;;9.98;68.25;102525.50;4988272;28;46968;-76
2021/10/14 07:13:11;;;;;;;;;33.00;29.25;;;;;10.02;68.11;102521.25;4985869;28;45479;-77
2021/10/14 07:15:37;;;;;;;;;26.00;24.25;;;;;10.06;68.39;102525.81;4991453;28;45408;-77
2021/10/14 07:18:02;;;;;;;;;41.50;31.75;;;;;10.08;68.34;102527.69;4997096;28;45519;-77
2021/10/14 07:20:27;;;;;;;;;32.50;30.75;;;;;10.11;68.46;102530.41;4994346;28;56474;-77
2021/10/14 07:22:53;;;;;;;;;36.50;34.00;;;;;10.10;68.53;102518.06;4989113;28;45449;-76
2021/10/14 07:25:18;;;;;;;;;39.00;32.50;;;;;10.17;68.40;102520.13;4971927;28;45639;-76
2021/10/14 07:27:44;;;;;;;;;38.50;34.25;;;;;10.20;68.57;102521.97;4990069;28;51876;-76
2021/10/14 07:30:09;;;;;;;;;37.75;33.50;;;;;10.21;68.40;102524.69;4990175;28;48483;-76
2021/10/14 07:32:35;;;;;;;;;43.75;35.75;;;;;10.24;68.51;102513.38;5077566;22;45991;-76
2021/10/14 07:35:00;;;;;;;;;49.75;34.50;;;;;10.34;68.63;102519.94;4980712;28;45781;-77
2021/10/14 07:37:26;;;;;;;;;38.00;33.00;;;;;10.38;68.65;102521.81;4972349;28;50514;-77
2021/10/14 07:39:51;;;;;;;;;37.00;31.50;;;;;10.40;68.37;102523.69;4988592;28;62238;-79
2021/10/14 07:42:17;;;;;;;;;40.75;35.75;;;;;10.45;68.49;102527.41;4975723;28;58973;-77
2021/10/14 07:44:42;;;;;;;;;43.50;35.25;;;;;10.49;68.77;102528.41;5041272;28;45893;-76
2021/10/14 07:47:07;;;;;;;;;41.75;33.50;;;;;10.48;68.32;102516.97;4973775;28;48277;-76
2021/10/14 07:49:33;;;;;;;;;45.25;35.50;;;;;10.59;68.50;102524.41;4972934;28;46190;-77
2021/10/14 07:51:58;;;;;;;;;37.75;35.25;;;;;10.65;68.45;102521.97;4973847;28;53788;-76
2021/10/14 07:54:24;;;;;;;;;39.75;35.50;;;;;10.64;68.72;102521.09;4979931;28;53120;-76
2021/10/14 07:56:50;;;;;;;;;44.25;35.75;;;;;10.72;68.50;102524.94;4996467;28;45558;-76
2021/10/14 07:59:16;;;;;;;;;51.50;39.25;;;;;10.75;68.77;102525.03;4977742;28;46330;-76
2021/10/14 08:01:41;;;;;;;;;53.75;40.25;;;;;10.82;68.84;102527.91;4977597;28;45615;-76
2021/10/14 08:04:08;;;;;;;;;40.75;34.00;;;;;10.85;68.39;102520.09;4976653;28;52894;-76
2021/10/14 08:06:34;;;;;;;;;43.25;37.50;;;;;10.91;68.75;102523.84;4976561;28;45525;-76
2021/10/14 08:08:59;;;;;;;;;37.75;36.00;;;;;10.95;68.65;102522.22;4972448;28;47183;-76
2021/10/14 08:11:25;;;;;;;;;44.00;39.00;;;;;11.00;68.60;102525.94;4972648;28;45447;-76
2021/10/14 08:13:50;;;;;;;;;42.00;36.00;;;;;10.99;68.27;102511.81;4980884;28;53606;-76
2021/10/14 08:16:15;;;;;;;;;49.50;40.25;;;;;11.09;68.42;102515.72;4979252;28;45473;-76
2021/10/14 08:18:41;;;;;;;;;39.75;34.25;;;;;11.16;68.22;102517.72;4976652;28;46282;-76
2021/10/14 08:21:06;;;;;;;;;45.00;37.75;;;;;11.18;68.10;102516.00;4976749;28;45268;-76
2021/10/14 08:23:32;;;;;;;;;50.75;41.75;;;;;11.20;67.68;102508.16;4977568;28;45452;-77
2021/10/14 08:25:57;;;;;;;;;52.25;40.75;;;;;11.33;68.12;102517.41;4977938;28;45575;-77
2021/10/14 08:28:26;;;;;;;;;45.75;39.00;;;;;11.38;68.00;102516.72;4978972;28;46669;-77
2021/10/14 08:30:52;;;;;;;;;51.25;37.25;;;;;11.41;68.38;102511.56;4977295;28;45795;-77
2021/10/14 08:33:18;;;;;;;;;50.50;38.75;;;;;11.48;67.96;102513.53;4982965;28;45230;-77
2021/10/14 08:35:43;;;;;;;;;44.75;37.50;;;;;11.53;67.91;102505.78;4975084;28;45148;-77
2021/10/14 08:38:09;;;;;;;;;43.50;37.00;;;;;11.57;67.82;102512.06;4976327;28;46405;-77
2021/10/14 08:40:35;;;;;;;;;43.00;37.25;;;;;11.61;67.53;102508.66;4977238;28;45637;-77
2021/10/14 08:43:04;;;;;;;;;50.75;38.00;;;;;11.68;67.72;102497.47;4959647;28;45518;-77
2021/10/14 08:45:29;;;;;;;;;44.75;37.00;;;;;11.71;67.62;102506.38;4978591;28;45699;-76
2021/10/14 08:47:55;;;;;;;;;44.50;36.00;;;;;11.76;67.56;102495.94;4955315;28;59845;-76
2021/10/14 08:50:20;;;;;;;;;38.00;34.25;;;;;11.84;67.32;102506.84;5022554;28;45510;-76
2021/10/14 08:52:46;;;;;;;;;37.00;33.25;;;;;11.88;66.97;102500.75;4977493;28;45952;-77
2021/10/14 08:55:11;;;;;;;;;39.75;32.25;;;;;11.94;67.16;102504.53;4985719;28;45960;-77
2021/10/14 08:57:37;;;;;;;;;43.50;34.50;;;;;12.00;67.03;102507.38;4978337;28;58371;-78
2021/10/14 09:00:10;;;;;;;;;38.50;31.75;;;;;12.07;66.79;102497.88;4976036;28;55079;-77
2021/10/14 09:02:35;;;;;;;;;34.00;29.25;;;;;12.14;66.68;102504.25;4986409;28;46521;-77
2021/10/14 09:05:04;;;;;;;;;37.00;32.00;;;;;12.13;66.50;102486.56;4919641;28;48021;-77
2021/10/14 09:07:31;;;;;;;;;41.25;34.25;;;;;12.21;66.41;102491.25;4912690;28;46854;-77
2021/10/14 09:10:01;;;;;;;;;39.25;33.00;;;;;12.28;66.17;102492.34;4910550;28;46941;-77
2021/10/14 09:12:35;;;;;;;;;40.25;32.75;;;;;12.39;66.20;102498.84;4991133;28;45620;-77
2021/10/14 09:15:12;;;;;;;;;48.50;36.75;;;;;12.44;66.25;102496.34;4929853;28;46617;-77
2021/10/14 09:17:37;;;;;;;;;38.50;32.75;;;;;12.49;66.14;102494.75;4926428;28;47565;-77
2021/10/14 09:20:20;;;;;;;;;35.00;29.75;;;;;12.56;66.00;102494.94;4929314;28;46581;-77
2021/10/14 09:22:55;;;;;;;;;39.00;31.75;;;;;12.62;65.85;102488.03;4924198;28;45474;-77
2021/10/14 09:25:34;;;;;;;;;33.50;27.50;;;;;12.68;65.99;102488.25;4929443;28;46567;-77
2021/10/14 09:28:10;;;;;;;;;30.25;27.25;;;;;12.74;65.45;102480.47;4922788;28;46990;-78
2021/10/14 09:30:52;;;;;;;;;34.25;30.75;;;;;12.79;65.53;102484.16;4929157;28;47596;-77
2021/10/14 09:33:36;;;;;;;;;36.50;30.75;;;;;12.84;65.36;102483.41;4925302;28;45753;-78
2021/10/14 09:36:20;;;;;;;;;41.00;33.00;;;;;12.83;65.43;102468.34;4931585;28;45525;-77
2021/10/14 09:38:48;;;;;;;;;38.00;30.00;;;;;12.95;64.98;102478.41;4928470;28;46708;-77
2021/10/14 09:41:15;;;;;;;;;35.75;30.50;;;;;13.03;65.14;102478.59;4931070;28;46508;-77
2021/10/14 09:43:41;;;;;;;;;24.75;20.75;;;;;13.10;65.06;102480.56;4931883;28;45530;-77
2021/10/14 09:46:06;;;;;;;;;28.50;23.00;;;;;13.15;64.55;102468.31;5087906;22;45810;-77
2021/10/14 09:48:32;;;;;;;;;29.75;27.50;;;;;13.20;64.61;102469.34;4976897;28;46283;-77
2021/10/14 09:50:57;;;;;;;;;30.25;27.00;;;;;13.27;64.68;102459.84;4984766;28;45990;-77
2021/10/14 09:53:24;;;;;;;;;24.67;23.00;;;;;13.32;64.84;102458.22;4987531;28;51532;-77
2021/10/14 09:55:50;;;;;;;;;27.25;22.75;;;;;13.38;64.48;102460.13;4984503;28;45443;-76
2021/10/14 09:58:16;;;;;;;;;15.33;13.00;;;;;13.41;62.58;102446.91;4987223;27;47188;-77
2021/10/14 10:00:43;;;;;;;;;7.00;5.67;;;;;13.50;63.58;102447.16;4988753;28;45473;-77
2021/10/14 10:03:10;;;;;;;;;11.00;5.00;;;;;13.56;63.28;102455.28;4990487;28;45491;-76
2021/10/14 10:05:35;;;;;;;;;6.00;4.00;;;;;13.51;63.35;102436.56;4993043;28;45275;-76
2021/10/14 10:08:02;;;;;;;;;5.33;5.33;;;;;13.68;62.52;102441.38;4964987;28;46626;-77
2021/10/14 10:10:28;;;;;;;;;5.33;4.00;;;;;13.71;62.87;102431.75;4970674;28;45576;-77
2021/10/14 10:12:54;;;;;;;;;5.33;5.33;;;;;13.78;62.81;102431.03;4976094;28;45590;-77
2021/10/14 10:15:39;;;;;;;;;8.33;6.00;;;;;13.85;62.62;102432.09;4952882;28;45583;-76
2021/10/14 10:18:26;;;;;;;;;12.00;8.33;;;;;13.90;61.89;102430.41;4984921;28;46530;-77
2021/10/14 10:20:52;;;;;;;;;9.33;8.00;;;;;13.96;61.80;102429.69;4986119;28;45486;-77
2021/10/14 10:23:42;;;;;;;;;11.67;7.67;;;;;14.01;60.21;102417.38;4989284;28;45488;-76
2021/10/14 10:26:32;;;;;;;;;6.00;6.00;;;;;14.09;61.79;102423.75;4995219;28;45611;-76
2021/10/14 10:28:58;;;;;;;;;12.00;9.00;;;;;14.08;60.61;102411.34;4992093;28;46631;-76
2021/10/14 10:31:23;;;;;;;;;14.67;12.00;;;;;14.15;61.62;102407.97;4997537;28;45510;-76
2021/10/14 10:33:59;;;;;;;;;10.00;9.00;;;;;14.24;60.76;102410.81;4978894;28;58911;-77
2021/10/14 10:36:45;;;;;;;;;14.67;10.67;;;;;14.31;60.77;102404.75;4997274;28;45527;-76
2021/10/14 10:39:55;;;;;;;;;18.00;10.00;;;;;14.35;59.39;102401.31;4984877;28;46716;-77
2021/10/14 10:42:28;;;;;;;;;18.67;14.00;;;;;14.44;59.52;102403.28;4991589;28;45430;-77
2021/10/14 10:44:54;;;;;;;;;17.00;11.00;;;;;14.52;60.09;102404.34;4983596;28;45511;-76
2021/10/14 10:47:45;;;;;;;;;12.67;9.33;;;;;14.56;60.12;102400.00;4985959;28;46410;-77
2021/10/14 10:50:34;;;;;;;;;12.33;9.67;;;;;14.54;59.60;102391.06;4984734;28;47407;-77
2021/10/14 10:53:10;;;;;;;;;9.33;8.00;;;;;14.63;59.27;102396.56;4967933;28;45617;-77
2021/10/14 10:55:37;;;;;;;;;15.33;9.33;;;;;14.67;60.11;102394.00;4988373;28;45477;-77
2021/10/14 10:58:03;;;;;;;;;14.33;13.00;;;;;14.71;59.91;102387.00;4989656;27;46780;-75
2021/10/14 11:00:28;;;;;;;;;12.33;11.00;;;;;14.76;59.85;102389.75;4984571;28;46560;-77
2021/10/14 11:03:26;;;;;;;;;17.33;9.67;;;;;14.79;59.46;102380.03;4983815;28;45532;-74
2021/10/14 11:05:55;;;;;;;;;9.00;9.00;;;;;14.81;59.51;102375.66;4997884;28;45620;-77
2021/10/14 11:08:30;;;;;;;;;9.00;7.33;;;;;14.87;59.01;102381.09;4985471;28;45663;-78
2021/10/14 11:11:02;;;;;;;;;8.67;7.67;;;;;14.81;59.12;102357.06;4987411;28;46795;-77